Time;durP1;ratioP1;P1;durP2;ratioP2;P2;SDS_P1;SDS_P2;PMS_P1;PMS_P2;Temp;Humidity;BMP_temperature;BMP_pressure;BME280_temperature;BME280_humidity;BME280_pressure;Samples;Min_cycle;Max_cycle;Signal;HPM_P1;HPM_P2
2023/03/04 00:01:49;;;;;;;86.03;34.80;;;0.90;59.30;;;;;;5017328;28;46412;-60
2023/03/04 00:04:15;;;;;;;104.00;39.38;;;0.90;59.40;;;;;;5027991;28;46516;-61
2023/03/04 00:06:41;;;;;;;98.57;37.42;;;0.80;59.40;;;;;;5030618;28;46409;-61
2023/03/04 00:09:06;;;;;;;94.83;35.13;;;0.90;59.50;;;;;;5026401;28;46272;-60
2023/03/04 00:11:32;;;;;;;100.97;36.77;;;0.80;59.60;;;;;;5027700;28;46395;-61
2023/03/04 00:13:58;;;;;;;91.77;35.80;;;0.80;59.70;;;;;;5027963;28;46687;-61
2023/03/04 00:16:27;;;;;;;93.50;34.97;;;0.80;59.70;;;;;;5028713;28;46390;-61
2023/03/04 00:18:57;;;;;;;117.85;39.85;;;0.80;59.80;;;;;;5033554;28;46620;-60
2023/03/04 00:21:23;;;;;;;105.15;36.60;;;0.80;59.80;;;;;;5029114;28;46315;-61
2023/03/04 00:23:48;;;;;;;103.47;35.70;;;0.80;59.80;;;;;;5027780;28;46530;-61
2023/03/04 00:26:15;;;;;;;108.93;36.53;;;0.70;59.90;;;;;;5029643;28;46430;-60
2023/03/04 00:28:41;;;;;;;97.30;35.92;;;0.70;60.00;;;;;;5026827;28;46450;-59
2023/03/04 00:31:07;;;;;;;105.07;34.83;;;0.70;60.00;;;;;;5030921;28;46442;-62
2023/03/04 00:33:33;;;;;;;97.03;36.92;;;0.70;60.10;;;;;;5030518;28;46398;-61
2023/03/04 00:35:59;;;;;;;100.73;36.27;;;0.70;60.20;;;;;;5029303;28;46599;-61
2023/03/04 00:38:24;;;;;;;91.90;36.97;;;0.60;60.40;;;;;;5029537;28;45805;-61
2023/03/04 00:40:50;;;;;;;103.70;35.33;;;0.60;60.50;;;;;;5033964;28;46289;-61
2023/03/04 00:43:16;;;;;;;99.53;35.93;;;0.60;60.60;;;;;;5031641;28;46316;-62
2023/03/04 00:45:41;;;;;;;102.67;36.97;;;0.50;60.60;;;;;;5032091;28;46403;-61
2023/03/04 00:48:07;;;;;;;93.73;35.70;;;0.50;60.70;;;;;;5031429;28;46322;-60
2023/03/04 00:50:33;;;;;;;85.37;32.83;;;0.60;60.90;;;;;;5031262;28;46457;-61
2023/03/04 00:52:58;;;;;;;102.67;34.77;;;0.40;60.80;;;;;;5026199;28;47025;-60
2023/03/04 00:55:24;;;;;;;108.30;40.23;;;0.50;60.90;;;;;;5032481;28;46284;-61
2023/03/04 00:57:49;;;;;;;143.83;51.20;;;0.40;60.80;;;;;;5031938;28;45932;-61
2023/03/04 01:00:15;;;;;;;104.27;38.77;;;0.40;61.00;;;;;;5035250;28;46337;-61
2023/03/04 01:02:41;;;;;;;91.60;34.77;;;0.30;60.90;;;;;;5031499;28;46199;-60
2023/03/04 01:05:07;;;;;;;99.90;35.80;;;0.30;61.00;;;;;;5030616;28;46394;-61
2023/03/04 01:07:33;;;;;;;99.78;35.72;;;0.30;61.10;;;;;;5030720;28;46482;-61
2023/03/04 01:09:59;;;;;;;92.33;34.83;;;0.30;61.10;;;;;;5030921;28;46485;-63
2023/03/04 01:12:24;;;;;;;89.33;34.73;;;0.30;61.20;;;;;;5033190;28;47166;-61
2023/03/04 01:14:50;;;;;;;98.77;36.43;;;0.20;61.30;;;;;;5036861;28;46461;-62
2023/03/04 01:17:15;;;;;;;96.53;32.90;;;0.20;62.40;;;;;;5033022;28;46457;-62
2023/03/04 01:19:41;;;;;;;83.57;32.30;;;0.20;61.20;;;;;;5030016;28;46389;-62
2023/03/04 01:22:06;;;;;;;87.13;33.60;;;0.20;61.20;;;;;;5032678;28;47243;-61
2023/03/04 01:24:32;;;;;;;90.80;35.57;;;0.20;61.10;;;;;;5034927;28;46094;-62
2023/03/04 01:26:58;;;;;;;94.93;33.43;;;0.20;61.20;;;;;;5038698;28;46408;-61
2023/03/04 01:29:23;;;;;;;88.30;35.10;;;0.10;61.20;;;;;;5031846;28;46434;-62
2023/03/04 01:31:49;;;;;;;88.17;33.03;;;0.10;61.30;;;;;;5033597;28;46393;-62
2023/03/04 01:34:16;;;;;;;88.73;32.20;;;0.10;61.40;;;;;;5031914;28;46466;-62
2023/03/04 01:36:42;;;;;;;93.95;35.40;;;0.10;61.60;;;;;;5035346;28;46473;-61
2023/03/04 01:39:07;;;;;;;94.63;33.57;;;0.10;61.60;;;;;;5034836;28;46367;-60
2023/03/04 01:41:33;;;;;;;93.00;34.23;;;0.10;61.50;;;;;;5034608;28;46386;-60
2023/03/04 01:44:01;;;;;;;97.60;36.10;;;0.10;62.20;;;;;;5031027;28;46447;-61
2023/03/04 01:46:28;;;;;;;87.60;34.47;;;0.00;61.50;;;;;;5036147;28;46413;-60
2023/03/04 01:48:54;;;;;;;91.80;34.38;;;0.00;61.60;;;;;;5034069;28;45935;-61
2023/03/04 01:51:20;;;;;;;99.20;34.63;;;0.00;61.70;;;;;;5031961;28;46168;-60
2023/03/04 01:53:50;;;;;;;91.70;34.30;;;0.00;61.70;;;;;;5031677;28;46499;-61
2023/03/04 01:56:34;;;;;;;86.53;32.47;;;0.00;61.70;;;;;;5032050;28;45729;-62
2023/03/04 01:59:11;;;;;;;88.25;30.65;;;0.00;61.70;;;;;;5034161;28;45920;-62
2023/03/04 02:01:38;;;;;;;73.30;30.55;;;0.00;61.70;;;;;;5033948;28;47123;-62
2023/03/04 02:04:05;;;;;;;78.13;32.00;;;-0.10;61.60;;;;;;5032131;28;46610;-60
2023/03/04 02:06:30;;;;;;;81.65;33.40;;;-0.10;61.50;;;;;;5032089;28;46484;-62
2023/03/04 02:08:57;;;;;;;83.67;33.80;;;0.00;61.60;;;;;;5027200;28;46556;-61
2023/03/04 02:11:23;;;;;;;79.45;31.90;;;-0.10;61.50;;;;;;5031008;28;46097;-61
2023/03/04 02:13:49;;;;;;;87.50;34.57;;;-0.10;61.50;;;;;;5032182;28;46460;-60
2023/03/04 02:16:15;;;;;;;87.97;33.95;;;-0.10;61.70;;;;;;5036608;28;46257;-62
2023/03/04 02:18:40;;;;;;;75.20;30.97;;;-0.20;61.70;;;;;;5035409;28;46664;-62
2023/03/04 02:21:26;;;;;;;73.87;31.27;;;-0.10;61.80;;;;;;5034922;28;46299;-62
2023/03/04 02:23:54;;;;;;;80.20;31.00;;;-0.20;61.90;;;;;;5027256;28;46514;-63
2023/03/04 02:26:22;;;;;;;77.70;32.83;;;-0.30;61.90;;;;;;5031931;28;46491;-62
2023/03/04 02:28:50;;;;;;;73.00;30.80;;;-0.20;61.90;;;;;;5033336;28;46510;-61
2023/03/04 02:31:30;;;;;;;79.75;32.55;;;-0.30;61.90;;;;;;5032080;28;47310;-61
2023/03/04 02:33:59;;;;;;;87.90;32.70;;;-0.30;62.10;;;;;;5030577;28;46405;-61
2023/03/04 02:36:25;;;;;;;80.22;32.67;;;-0.30;62.20;;;;;;5028836;28;46488;-62
2023/03/04 02:38:52;;;;;;;73.90;30.75;;;-0.30;62.30;;;;;;5034284;28;46555;-60
2023/03/04 02:41:25;;;;;;;68.30;30.17;;;-0.30;62.30;;;;;;5033744;28;46409;-61
2023/03/04 02:43:53;;;;;;;78.80;31.75;;;-0.30;62.30;;;;;;5033098;28;46655;-61
2023/03/04 02:46:20;;;;;;;71.20;29.70;;;-0.30;62.30;;;;;;5034403;28;46347;-62
2023/03/04 02:48:45;;;;;;;79.65;30.45;;;-0.30;62.40;;;;;;5032631;28;46456;-61
2023/03/04 02:51:11;;;;;;;63.53;27.17;;;-0.40;62.40;;;;;;5031224;28;46399;-60
2023/03/04 02:53:37;;;;;;;65.83;28.30;;;-0.40;62.50;;;;;;5032815;28;46432;-61
2023/03/04 02:56:02;;;;;;;65.50;28.47;;;-0.50;62.70;;;;;;5035147;28;46463;-60
2023/03/04 02:58:28;;;;;;;64.40;26.87;;;-0.50;62.70;;;;;;5032488;28;46545;-61
2023/03/04 03:00:54;;;;;;;59.43;26.90;;;-0.50;62.80;;;;;;5027472;28;46355;-61
2023/03/04 03:03:19;;;;;;;62.10;27.07;;;-0.50;62.70;;;;;;5031966;28;45835;-60
2023/03/04 03:05:45;;;;;;;60.57;27.23;;;-0.50;62.50;;;;;;5031351;28;46582;-60
2023/03/04 03:08:11;;;;;;;59.63;26.53;;;-0.50;62.60;;;;;;5034821;28;46590;-62
2023/03/04 03:10:36;;;;;;;56.00;26.53;;;-0.60;62.40;;;;;;5031219;28;46459;-62
2023/03/04 03:13:02;;;;;;;57.40;26.30;;;-0.60;62.60;;;;;;5029845;28;46396;-61
2023/03/04 03:15:28;;;;;;;47.70;24.87;;;-0.60;62.60;;;;;;5035085;28;46371;-61
2023/03/04 03:17:53;;;;;;;52.10;25.37;;;-0.60;62.60;;;;;;5033665;28;46377;-62
2023/03/04 03:20:19;;;;;;;53.30;25.83;;;-0.70;62.60;;;;;;5032299;28;47061;-63
2023/03/04 03:22:45;;;;;;;48.40;23.10;;;-0.70;62.80;;;;;;5034788;28;45861;-62
2023/03/04 03:25:12;;;;;;;44.88;24.15;;;-0.70;62.90;;;;;;5026885;28;45804;-62
2023/03/04 03:27:38;;;;;;;49.78;24.85;;;-0.80;62.70;;;;;;5032393;28;46607;-60
2023/03/04 03:30:06;;;;;;;51.87;23.33;;;-0.80;62.90;;;;;;5035214;28;46442;-62
2023/03/04 03:32:32;;;;;;;49.08;23.75;;;-0.80;62.90;;;;;;5031885;28;46078;-62
2023/03/04 03:34:57;;;;;;;56.37;24.20;;;-0.80;62.90;;;;;;5029951;28;46377;-61
2023/03/04 03:37:23;;;;;;;46.10;22.93;;;-0.80;62.80;;;;;;5039845;28;46362;-61
2023/03/04 03:39:48;;;;;;;55.03;25.10;;;-0.80;62.90;;;;;;5032461;28;46105;-61
2023/03/04 03:42:14;;;;;;;60.97;27.77;;;-0.80;62.70;;;;;;5031673;28;46505;-61
2023/03/04 03:44:39;;;;;;;58.07;25.87;;;-0.70;62.70;;;;;;5034044;28;46418;-61
2023/03/04 03:47:05;;;;;;;59.80;27.60;;;-0.80;62.50;;;;;;5029640;28;46213;-61
2023/03/04 03:49:31;;;;;;;63.13;27.33;;;-0.80;62.50;;;;;;5030261;28;46335;-63
2023/03/04 03:51:56;;;;;;;56.63;26.97;;;-0.70;62.50;;;;;;5029039;28;46470;-63
2023/03/04 03:54:22;;;;;;;57.10;24.63;;;-0.70;62.40;;;;;;5031322;28;45800;-62
2023/03/04 03:56:48;;;;;;;64.63;27.37;;;-0.70;62.30;;;;;;5029533;28;46358;-61
2023/03/04 03:59:13;;;;;;;53.33;25.60;;;-0.70;62.20;;;;;;5028701;28;46174;-62
2023/03/04 04:01:39;;;;;;;61.27;27.43;;;-0.70;62.10;;;;;;5032994;28;46452;-61
2023/03/04 04:04:04;;;;;;;69.87;29.70;;;-0.60;62.10;;;;;;5029349;28;46418;-61
2023/03/04 04:06:30;;;;;;;61.20;28.13;;;-0.60;62.00;;;;;;5034728;28;46339;-63
2023/03/04 04:08:56;;;;;;;59.33;28.67;;;-0.60;62.00;;;;;;5032065;28;47356;-63
2023/03/04 04:11:21;;;;;;;62.87;28.50;;;-0.60;62.00;;;;;;5032556;28;46453;-63
2023/03/04 04:13:47;;;;;;;68.83;29.60;;;-0.50;62.10;;;;;;5030858;28;46392;-62
2023/03/04 04:16:12;;;;;;;65.70;29.17;;;-0.60;62.10;;;;;;5012072;28;45804;-61
2023/03/04 04:18:38;;;;;;;61.77;27.93;;;-0.50;62.30;;;;;;5013663;28;47009;-61
2023/03/04 04:21:04;;;;;;;67.93;27.10;;;-0.60;62.10;;;;;;5031862;28;45744;-62
2023/03/04 04:23:30;;;;;;;65.07;29.30;;;-0.60;62.20;;;;;;5032364;28;46363;-61
2023/03/04 04:25:56;;;;;;;65.33;27.43;;;-0.60;62.30;;;;;;5031618;28;45980;-60
2023/03/04 04:28:22;;;;;;;65.85;28.10;;;-0.70;62.20;;;;;;5028689;28;45953;-61
2023/03/04 04:30:48;;;;;;;71.00;30.23;;;-0.70;62.20;;;;;;5025999;28;46432;-62
2023/03/04 04:33:13;;;;;;;58.23;27.43;;;-0.70;62.20;;;;;;5031339;28;46375;-62
2023/03/04 04:35:39;;;;;;;66.17;29.17;;;-0.70;62.30;;;;;;5029190;28;46399;-60
2023/03/04 04:38:06;;;;;;;78.37;28.80;;;-0.70;62.30;;;;;;5029320;28;47006;-62
2023/03/04 04:40:31;;;;;;;65.85;29.27;;;-0.70;62.30;;;;;;5030599;28;46422;-62
2023/03/04 04:42:57;;;;;;;64.97;28.70;;;-0.70;62.30;;;;;;5026136;28;45800;-62
2023/03/04 04:45:23;;;;;;;73.70;28.43;;;-0.80;62.30;;;;;;5035247;28;46585;-62
2023/03/04 04:47:54;;;;;;;67.55;27.42;;;-0.80;62.40;;;;;;5034588;28;46430;-63
2023/03/04 04:50:19;;;;;;;70.80;29.40;;;-0.70;62.50;;;;;;5036735;28;46343;-62
2023/03/04 04:52:45;;;;;;;68.40;29.70;;;-0.80;62.40;;;;;;5034083;28;46458;-62
2023/03/04 04:55:11;;;;;;;72.87;30.60;;;-0.70;62.60;;;;;;5035370;28;46461;-62
2023/03/04 04:57:37;;;;;;;81.67;31.23;;;-0.80;62.50;;;;;;5035025;28;46923;-62
2023/03/04 05:00:05;;;;;;;79.77;31.07;;;-0.80;62.90;;;;;;5034112;28;46407;-63
2023/03/04 05:02:35;;;;;;;74.15;32.05;;;-0.80;62.70;;;;;;5032099;28;46166;-62
2023/03/04 05:05:01;;;;;;;79.65;32.05;;;-0.80;62.80;;;;;;5033019;28;46720;-63
2023/03/04 05:07:27;;;;;;;76.63;31.95;;;-0.80;62.90;;;;;;5030916;28;45983;-63
2023/03/04 05:09:52;;;;;;;84.67;32.07;;;-0.90;63.00;;;;;;5031887;28;46745;-62
2023/03/04 05:12:18;;;;;;;80.80;30.53;;;-0.90;63.00;;;;;;5034317;28;46499;-62
2023/03/04 05:14:43;;;;;;;77.67;31.37;;;-0.90;63.10;;;;;;5034525;28;46311;-62
2023/03/04 05:17:09;;;;;;;73.63;30.63;;;-0.80;63.00;;;;;;5032991;28;46370;-61
2023/03/04 05:19:35;;;;;;;83.97;29.87;;;-0.70;63.00;;;;;;5035027;28;46478;-62
2023/03/04 05:22:00;;;;;;;78.93;30.37;;;-0.90;62.90;;;;;;5032597;28;46411;-62
2023/03/04 05:24:26;;;;;;;81.27;30.70;;;-0.80;62.90;;;;;;5034198;28;46490;-62
2023/03/04 05:26:51;;;;;;;87.30;33.80;;;-0.80;62.90;;;;;;5037262;28;46507;-62
2023/03/04 05:29:17;;;;;;;80.73;32.57;;;-0.80;62.80;;;;;;5033343;28;46458;-60
2023/03/04 05:31:42;;;;;;;80.67;33.27;;;-0.90;62.70;;;;;;5021467;28;46398;-60
2023/03/04 05:34:08;;;;;;;89.20;31.57;;;-0.80;62.90;;;;;;5033996;28;46354;-60
2023/03/04 05:36:34;;;;;;;83.23;32.27;;;-0.80;62.90;;;;;;5033613;28;46422;-61
2023/03/04 05:38:59;;;;;;;77.50;32.17;;;-0.90;62.80;;;;;;5036933;28;46274;-62
2023/03/04 05:41:25;;;;;;;82.83;32.30;;;-0.90;63.00;;;;;;5034274;28;46479;-60
2023/03/04 05:43:51;;;;;;;80.83;30.40;;;-0.80;63.10;;;;;;5033772;28;46308;-60
2023/03/04 05:46:24;;;;;;;75.63;29.50;;;-0.80;63.20;;;;;;5036026;28;46449;-62
2023/03/04 05:48:50;;;;;;;73.25;29.90;;;-0.90;63.10;;;;;;5034029;28;47485;-62
2023/03/04 05:51:15;;;;;;;91.22;33.30;;;-0.90;63.10;;;;;;5034221;28;46205;-61
2023/03/04 05:53:41;;;;;;;72.90;30.90;;;-0.90;64.20;;;;;;5031978;28;46366;-62
2023/03/04 05:56:12;;;;;;;94.27;33.27;;;-0.90;63.10;;;;;;5031011;28;47208;-64
2023/03/04 05:58:38;;;;;;;94.13;31.52;;;-0.90;62.90;;;;;;5035087;28;46400;-61
2023/03/04 06:01:04;;;;;;;85.80;32.30;;;-0.90;62.90;;;;;;5036743;28;46390;-63
2023/03/04 06:03:30;;;;;;;93.32;33.75;;;-0.80;62.90;;;;;;5036322;28;46607;-62
2023/03/04 06:05:55;;;;;;;87.57;32.50;;;-0.70;63.00;;;;;;5028631;28;46391;-62
2023/03/04 06:08:21;;;;;;;87.73;36.23;;;-0.70;62.90;;;;;;5034917;28;46378;-62
2023/03/04 06:10:47;;;;;;;84.17;32.60;;;-0.70;62.80;;;;;;5030667;28;46401;-60
2023/03/04 06:13:12;;;;;;;86.50;33.87;;;-0.60;62.90;;;;;;5032507;28;46411;-60
2023/03/04 06:15:39;;;;;;;93.40;33.57;;;-0.60;62.90;;;;;;5026438;28;46256;-62
2023/03/04 06:18:05;;;;;;;95.80;34.70;;;-0.60;62.90;;;;;;5032316;28;46490;-60
2023/03/04 06:20:31;;;;;;;82.53;32.17;;;-0.60;62.80;;;;;;5032738;28;46335;-61
2023/03/04 06:22:57;;;;;;;75.27;32.50;;;-0.50;62.80;;;;;;5034159;28;46463;-63
2023/03/04 06:25:23;;;;;;;89.80;35.00;;;-0.50;62.80;;;;;;5033207;28;47247;-62
2023/03/04 06:27:48;;;;;;;76.53;32.80;;;-0.50;62.90;;;;;;5032745;28;45903;-60
2023/03/04 06:30:14;;;;;;;83.03;33.77;;;-0.40;62.70;;;;;;5032151;28;46411;-61
2023/03/04 06:32:43;;;;;;;76.07;33.23;;;-0.30;62.60;;;;;;5035003;28;46395;-62
2023/03/04 06:35:12;;;;;;;86.75;34.75;;;-0.20;62.50;;;;;;5028948;28;46379;-61
2023/03/04 06:37:38;;;;;;;75.53;31.55;;;-0.10;62.50;;;;;;5033620;28;46383;-61
2023/03/04 06:40:04;;;;;;;76.57;34.00;;;0.00;62.40;;;;;;5027590;28;45976;-61
2023/03/04 06:42:29;;;;;;;75.70;30.95;;;0.10;62.30;;;;;;5035224;28;45979;-61
2023/03/04 06:44:55;;;;;;;82.47;34.07;;;0.20;62.30;;;;;;5033294;28;46741;-61
2023/03/04 06:47:21;;;;;;;74.57;32.87;;;0.30;62.10;;;;;;5033053;28;46245;-62
2023/03/04 06:49:47;;;;;;;71.90;31.25;;;0.40;62.30;;;;;;5030925;28;46393;-62
2023/03/04 06:52:12;;;;;;;67.90;30.47;;;0.50;62.30;;;;;;5033318;28;46264;-63
2023/03/04 06:54:38;;;;;;;68.63;32.00;;;0.50;62.10;;;;;;5032789;28;46445;-62
2023/03/04 06:57:05;;;;;;;76.32;32.42;;;0.70;62.10;;;;;;5029609;28;46659;-59
2023/03/04 06:59:30;;;;;;;71.18;34.72;;;0.80;62.00;;;;;;5033538;28;45856;-60
2023/03/04 07:01:59;;;;;;;98.53;46.00;;;1.00;62.20;;;;;;5032482;28;46418;-61
2023/03/04 07:04:24;;;;;;;85.50;42.33;;;1.10;62.10;;;;;;5033418;28;47119;-61
2023/03/04 07:06:50;;;;;;;74.33;35.83;;;1.30;62.00;;;;;;5032347;28;46446;-62
2023/03/04 07:09:17;;;;;;;69.78;34.90;;;1.50;62.00;;;;;;5033306;28;46386;-61
2023/03/04 07:11:43;;;;;;;67.40;34.30;;;1.60;61.60;;;;;;5030658;28;46687;-62
2023/03/04 07:14:08;;;;;;;68.38;33.33;;;1.80;61.40;;;;;;5030148;28;46469;-62
2023/03/04 07:16:34;;;;;;;64.80;31.30;;;2.00;61.40;;;;;;5031939;28;46759;-62
2023/03/04 07:19:00;;;;;;;64.03;30.67;;;2.10;61.30;;;;;;5016099;28;46489;-60
2023/03/04 07:21:26;;;;;;;64.50;30.77;;;2.30;61.30;;;;;;5031565;28;46499;-61
2023/03/04 07:23:51;;;;;;;64.47;31.08;;;2.40;61.10;;;;;;5030169;28;47145;-62
2023/03/04 07:26:17;;;;;;;61.33;30.97;;;2.60;61.00;;;;;;5033978;28;46449;-61
2023/03/04 07:28:43;;;;;;;59.30;29.33;;;2.70;60.80;;;;;;5031952;28;46742;-61
2023/03/04 07:31:16;;;;;;;69.27;31.13;;;2.70;61.10;;;;;;5031451;28;46651;-63
2023/03/04 07:33:42;;;;;;;56.63;29.73;;;2.60;61.50;;;;;;5026986;28;46282;-62
2023/03/04 07:36:07;;;;;;;55.83;28.07;;;2.80;61.70;;;;;;5028603;28;46495;-62
2023/03/04 07:38:33;;;;;;;59.50;29.70;;;2.80;61.70;;;;;;5030799;28;46425;-62
2023/03/04 07:40:59;;;;;;;58.37;28.40;;;2.70;61.90;;;;;;5033739;28;46702;-62
2023/03/04 07:43:25;;;;;;;56.70;27.90;;;2.70;63.30;;;;;;5031197;28;46299;-61
2023/03/04 07:45:50;;;;;;;54.40;28.17;;;2.70;62.20;;;;;;5027119;28;46371;-62
2023/03/04 07:48:16;;;;;;;52.17;27.67;;;2.70;62.30;;;;;;5032638;28;46418;-62
2023/03/04 07:50:42;;;;;;;56.53;28.50;;;2.70;62.30;;;;;;5034385;28;46439;-62
2023/03/04 07:53:07;;;;;;;54.93;29.17;;;2.60;62.60;;;;;;5034466;28;46239;-61
2023/03/04 07:55:33;;;;;;;62.07;29.93;;;2.80;62.40;;;;;;5034975;28;46540;-60
2023/03/04 07:57:59;;;;;;;63.03;31.80;;;3.00;62.00;;;;;;5031840;28;46343;-61
2023/03/04 08:00:24;;;;;;;64.80;30.37;;;3.20;61.40;;;;;;5029942;28;46463;-62
2023/03/04 08:02:50;;;;;;;56.37;30.07;;;3.40;60.90;;;;;;5032903;28;46356;-61
2023/03/04 08:05:16;;;;;;;58.80;28.93;;;3.50;60.60;;;;;;5030665;28;46325;-61
2023/03/04 08:07:42;;;;;;;61.80;30.10;;;3.60;61.00;;;;;;5035652;28;46447;-61
2023/03/04 08:10:08;;;;;;;69.63;32.67;;;3.70;60.60;;;;;;5035045;28;46396;-62
2023/03/04 08:12:34;;;;;;;67.13;32.63;;;3.80;60.10;;;;;;5028156;28;46428;-61
2023/03/04 08:15:00;;;;;;;69.35;33.00;;;3.90;60.20;;;;;;5029438;28;46396;-62
2023/03/04 08:17:28;;;;;;;69.33;31.10;;;4.00;60.30;;;;;;5032843;28;46389;-62
2023/03/04 08:19:54;;;;;;;57.33;30.80;;;4.10;60.30;;;;;;5028058;28;46394;-62
2023/03/04 08:22:19;;;;;;;63.17;32.33;;;3.90;60.10;;;;;;5030154;28;47108;-61
2023/03/04 08:24:45;;;;;;;57.47;28.33;;;3.80;60.70;;;;;;5032447;28;46437;-63
2023/03/04 08:27:11;;;;;;;64.57;31.50;;;3.80;60.70;;;;;;5030059;28;46470;-61
2023/03/04 08:29:36;;;;;;;60.80;30.87;;;3.80;60.70;;;;;;5030291;28;46454;-61
2023/03/04 08:32:02;;;;;;;62.17;31.60;;;3.70;61.10;;;;;;5032097;28;46414;-61
2023/03/04 08:34:28;;;;;;;61.07;29.67;;;3.70;61.40;;;;;;5031663;28;46450;-62
2023/03/04 08:36:53;;;;;;;60.47;28.50;;;3.60;61.50;;;;;;5030699;28;46382;-63
2023/03/04 08:39:19;;;;;;;62.93;30.33;;;3.70;61.40;;;;;;5030732;28;46260;-63
2023/03/04 08:41:46;;;;;;;60.40;30.90;;;3.90;61.40;;;;;;5031967;28;47163;-61
2023/03/04 08:44:13;;;;;;;68.93;30.92;;;4.10;60.50;;;;;;5031821;28;46362;-61
2023/03/04 08:46:41;;;;;;;51.70;27.60;;;4.00;60.20;;;;;;5032535;28;46454;-60
2023/03/04 08:49:07;;;;;;;60.87;30.17;;;4.10;60.30;;;;;;5029717;28;46339;-61
2023/03/04 08:51:34;;;;;;;56.00;29.40;;;4.20;60.40;;;;;;5026329;28;47163;-63
2023/03/04 08:54:03;;;;;;;58.53;29.25;;;4.20;60.40;;;;;;5019678;28;46489;-61
2023/03/04 08:56:29;;;;;;;62.93;30.10;;;4.30;60.50;;;;;;5030101;28;45840;-61
2023/03/04 08:58:55;;;;;;;59.27;29.53;;;4.40;60.60;;;;;;5030169;28;45873;-60
2023/03/04 09:01:20;;;;;;;53.43;27.50;;;4.50;60.50;;;;;;5029469;28;46580;-62
2023/03/04 09:03:46;;;;;;;59.17;26.97;;;4.50;60.10;;;;;;5024046;28;46474;-66
2023/03/04 09:06:14;;;;;;;54.40;27.50;;;4.40;60.00;;;;;;5026019;28;46383;-61
2023/03/04 09:08:40;;;;;;;56.17;28.03;;;4.50;60.00;;;;;;5030502;28;46556;-60
2023/03/04 09:11:06;;;;;;;60.43;28.40;;;4.60;60.00;;;;;;5029864;28;46603;-61
2023/03/04 09:13:33;;;;;;;62.17;27.90;;;4.60;59.80;;;;;;5029059;28;46418;-61
2023/03/04 09:15:59;;;;;;;58.53;30.27;;;4.80;59.40;;;;;;5028633;28;46586;-61
2023/03/04 09:18:25;;;;;;;53.00;27.10;;;4.80;58.90;;;;;;5030133;28;46600;-61
2023/03/04 09:20:51;;;;;;;54.20;27.37;;;4.90;59.00;;;;;;5031083;28;46570;-61
2023/03/04 09:23:17;;;;;;;54.97;29.07;;;4.90;58.50;;;;;;5030477;28;46383;-61
2023/03/04 09:25:45;;;;;;;57.70;30.33;;;4.90;58.80;;;;;;5031316;28;46408;-62
2023/03/04 09:28:11;;;;;;;50.43;26.27;;;5.00;58.60;;;;;;5016588;28;46432;-60
2023/03/04 09:30:37;;;;;;;56.67;28.20;;;5.20;58.30;;;;;;5027514;28;46536;-61
2023/03/04 09:33:03;;;;;;;55.93;27.47;;;5.10;58.10;;;;;;5032759;28;46399;-61
2023/03/04 09:35:28;;;;;;;48.50;26.37;;;5.20;58.20;;;;;;5032695;28;46429;-60
2023/03/04 09:37:55;;;;;;;48.87;25.83;;;5.30;57.60;;;;;;5035158;28;46538;-59
2023/03/04 09:40:27;;;;;;;50.60;24.87;;;5.30;57.00;;;;;;5029455;28;46202;-61
2023/03/04 09:43:02;;;;;;;53.80;26.77;;;5.30;57.00;;;;;;5033690;28;46443;-60
2023/03/04 09:45:36;;;;;;;50.23;26.73;;;5.30;57.00;;;;;;5033884;28;46454;-60
2023/03/04 09:48:02;;;;;;;53.80;26.03;;;5.20;57.10;;;;;;5032652;28;46434;-60
2023/03/04 09:50:32;;;;;;;47.47;25.30;;;5.10;56.90;;;;;;5034636;28;46618;-62
2023/03/04 09:53:24;;;;;;;48.53;23.97;;;5.10;57.00;;;;;;5035866;28;46586;-61
2023/03/04 09:55:51;;;;;;;50.37;27.30;;;5.10;56.70;;;;;;5033411;28;46527;-61
2023/03/04 09:58:44;;;;;;;51.50;26.23;;;5.40;56.50;;;;;;5034430;28;46351;-61
2023/03/04 10:01:25;;;;;;;47.33;24.60;;;5.60;55.80;;;;;;5032920;28;46485;-61
2023/03/04 10:04:16;;;;;;;43.47;22.73;;;5.70;55.40;;;;;;5030532;28;46442;-60
2023/03/04 10:06:45;;;;;;;47.50;25.10;;;5.60;55.10;;;;;;5029156;28;46499;-60
2023/03/04 10:09:23;;;;;;;46.37;22.30;;;5.60;55.20;;;;;;5030875;28;46418;-62
2023/03/04 10:12:00;;;;;;;39.23;20.30;;;5.50;55.10;;;;;;5032616;28;46351;-61
2023/03/04 10:14:51;;;;;;;42.77;20.17;;;5.50;54.60;;;;;;5030833;28;45861;-61
2023/03/04 10:17:31;;;;;;;41.30;21.93;;;5.60;54.60;;;;;;5029951;28;46337;-63
2023/03/04 10:20:08;;;;;;;42.23;21.20;;;5.70;54.40;;;;;;5027350;28;46451;-62
2023/03/04 10:22:40;;;;;;;43.70;21.90;;;5.80;53.90;;;;;;5029696;28;46983;-62
2023/03/04 10:25:24;;;;;;;40.13;22.40;;;5.80;53.40;;;;;;5028829;28;46468;-60
2023/03/04 10:28:16;;;;;;;47.87;22.90;;;5.80;53.30;;;;;;5033820;28;46339;-61
2023/03/04 10:30:58;;;;;;;36.67;19.97;;;5.70;52.50;;;;;;5029925;28;46451;-62
2023/03/04 10:33:36;;;;;;;43.10;21.87;;;5.90;52.70;;;;;;5040637;28;46454;-61
2023/03/04 10:36:15;;;;;;;53.57;21.37;;;6.20;52.50;;;;;;5031960;28;46284;-62
2023/03/04 10:38:42;;;;;;;42.83;22.07;;;6.50;51.90;;;;;;5030320;28;45788;-61
2023/03/04 10:41:16;;;;;;;39.30;20.87;;;6.70;51.50;;;;;;5031851;28;46540;-61
2023/03/04 10:43:48;;;;;;;41.47;21.07;;;6.80;50.50;;;;;;5030273;28;47334;-61
2023/03/04 10:46:14;;;;;;;37.07;20.77;;;6.90;50.50;;;;;;5028056;28;46438;-60
2023/03/04 10:48:43;;;;;;;48.00;22.50;;;6.70;49.80;;;;;;5032243;28;46430;-61
2023/03/04 10:51:21;;;;;;;45.67;23.00;;;6.70;49.90;;;;;;5029340;28;46428;-60
2023/03/04 10:53:51;;;;;;;41.93;21.47;;;7.00;50.00;;;;;;5029314;28;47116;-60
2023/03/04 10:56:52;;;;;;;40.17;21.13;;;7.30;50.50;;;;;;5031276;28;46526;-60
2023/03/04 10:59:31;;;;;;;36.00;18.80;;;7.10;49.00;;;;;;5033479;28;46845;-62
2023/03/04 11:01:58;;;;;;;38.53;20.17;;;7.20;48.80;;;;;;5029762;28;46588;-61
2023/03/04 11:04:26;;;;;;;39.20;20.10;;;7.30;48.70;;;;;;5029190;28;46520;-60
2023/03/04 11:06:52;;;;;;;30.37;17.53;;;7.40;48.00;;;;;;5031959;28;46384;-62
2023/03/04 11:09:22;;;;;;;35.60;19.10;;;7.30;44.80;;;;;;5030917;28;45924;-61
2023/03/04 11:11:50;;;;;;;37.30;20.37;;;7.20;45.10;;;;;;5031813;28;46338;-61
2023/03/04 11:14:35;;;;;;;38.40;19.80;;;7.50;45.40;;;;;;5034971;28;46576;-61
2023/03/04 11:17:15;;;;;;;35.70;18.50;;;7.40;45.20;;;;;;5033114;28;46365;-61
2023/03/04 11:19:46;;;;;;;33.17;19.00;;;7.50;45.70;;;;;;5032190;28;46503;-61
2023/03/04 11:22:18;;;;;;;35.03;18.23;;;7.90;45.50;;;;;;5030842;28;46415;-60
2023/03/04 11:24:54;;;;;;;35.53;19.30;;;8.00;43.60;;;;;;5028548;28;46093;-60
2023/03/04 11:27:28;;;;;;;36.70;18.63;;;8.20;42.60;;;;;;5031879;28;46494;-61
2023/03/04 11:30:30;;;;;;;37.43;18.43;;;8.10;42.20;;;;;;5031856;28;46319;-61
2023/03/04 11:33:14;;;;;;;34.33;17.40;;;8.20;42.20;;;;;;5025654;28;45869;-61
2023/03/04 11:36:09;;;;;;;40.30;17.70;;;7.50;42.80;;;;;;5028509;28;47892;-61
2023/03/04 11:38:39;;;;;;;37.60;18.73;;;7.00;43.80;;;;;;5036553;28;46404;-59
2023/03/04 11:41:13;;;;;;;48.53;18.43;;;6.80;44.20;;;;;;5031775;28;46272;-61
2023/03/04 11:43:42;;;;;;;42.17;16.70;;;6.40;44.00;;;;;;5026790;28;46435;-61
2023/03/04 11:46:35;;;;;;;35.43;18.90;;;6.30;44.60;;;;;;5031102;28;46580;-61
2023/03/04 11:49:04;;;;;;;34.63;17.57;;;6.10;44.70;;;;;;5027106;28;45744;-61
2023/03/04 11:51:52;;;;;;;50.30;18.17;;;6.10;44.70;;;;;;5029269;28;46765;-60
2023/03/04 11:54:40;;;;;;;39.20;15.83;;;6.10;44.50;;;;;;5029684;28;46485;-62
2023/03/04 11:57:15;;;;;;;42.10;16.77;;;6.10;44.20;;;;;;5028306;28;46399;-59
2023/03/04 11:59:56;;;;;;;36.10;18.50;;;6.00;44.70;;;;;;5030896;28;46347;-62
2023/03/04 12:02:43;;;;;;;34.53;17.80;;;6.00;44.60;;;;;;5029740;28;46536;-62
2023/03/04 12:05:29;;;;;;;45.63;17.10;;;6.10;44.60;;;;;;5028435;28;46372;-61
2023/03/04 12:08:07;;;;;;;33.83;16.53;;;6.20;44.40;;;;;;5030603;28;46183;-61
2023/03/04 12:10:48;;;;;;;36.07;17.67;;;6.30;44.20;;;;;;5029896;28;46363;-60
2023/03/04 12:13:54;;;;;;;38.80;18.17;;;6.30;44.20;;;;;;5034517;28;46394;-60
2023/03/04 12:16:49;;;;;;;38.90;17.40;;;6.30;43.90;;;;;;5012797;28;46427;-60
2023/03/04 12:19:42;;;;;;;31.17;17.70;;;6.40;43.90;;;;;;5030293;28;46212;-60
2023/03/04 12:22:19;;;;;;;36.17;16.67;;;6.30;43.70;;;;;;5017772;28;47298;-61
2023/03/04 12:25:24;;;;;;;33.43;20.23;;;6.30;43.00;;;;;;5030266;28;46493;-61
2023/03/04 12:28:32;;;;;;;35.63;18.43;;;6.30;43.50;;;;;;5027224;28;46533;-59
2023/03/04 12:31:19;;;;;;;37.73;18.40;;;6.40;43.70;;;;;;5025953;28;46541;-60
2023/03/04 12:33:53;;;;;;;33.93;17.33;;;6.60;43.50;;;;;;5031665;28;46565;-60
2023/03/04 12:36:43;;;;;;;40.90;17.53;;;6.80;42.70;;;;;;5028723;28;46749;-61
2023/03/04 12:39:39;;;;;;;31.80;17.80;;;6.90;42.40;;;;;;5031969;28;46736;-60
2023/03/04 12:42:22;;;;;;;35.53;18.20;;;6.80;41.70;;;;;;5032165;28;46347;-60
2023/03/04 12:45:16;;;;;;;34.00;17.00;;;6.70;41.90;;;;;;5028477;28;46450;-63